Time;durP1;ratioP1;P1;durP2;ratioP2;P2;SDS_P1;SDS_P2;PMS_P1;PMS_P2;Temp;Humidity;BMP_temperature;BMP_pressure;BME280_temperature;BME280_humidity;BME280_pressure;Samples;Min_cycle;Max_cycle;Signal;HPM_P1;HPM_P2
2023/04/02 00:01:02;;;;;;;1.80;0.93;;;15.80;99.90;;;15.73;56.59;100261.56;4895754;28;102623;-47
2023/04/02 00:03:43;;;;;;;2.27;1.30;;;15.60;99.90;;;15.58;57.47;100263.34;4900935;28;97114;-48
2023/04/02 00:06:33;;;;;;;0.50;0.37;;;15.40;99.90;;;15.56;56.74;100270.56;4897058;28;98074;-50
2023/04/02 00:09:14;;;;;;;0.50;0.30;;;15.40;99.90;;;15.59;56.65;100275.72;4900075;28;97289;-47
2023/04/02 00:11:47;;;;;;;0.70;0.60;;;15.50;99.90;;;15.63;56.39;100285.22;4901234;28;99950;-50
2023/04/02 00:14:33;;;;;;;0.57;0.27;;;15.70;99.90;;;15.75;56.29;100286.22;4910032;28;97267;-48
2023/04/02 00:17:02;;;;;;;0.10;0.10;;;15.80;99.90;;;15.76;55.69;100294.13;4915796;28;97194;-49
2023/04/02 00:19:35;;;;;;;0.77;0.40;;;15.80;99.90;;;15.80;55.75;100293.94;4894494;28;97186;-46
2023/04/02 00:22:05;;;;;;;0.13;0.10;;;15.90;99.90;;;15.82;54.63;100302.69;4901543;28;97470;-47
2023/04/02 00:24:32;;;;;;;0.30;0.30;;;15.90;99.90;;;15.84;55.66;100316.72;4894441;28;97324;-47
2023/04/02 00:26:58;;;;;;;0.83;0.37;;;15.90;99.90;;;15.86;55.77;100325.47;4899720;28;97452;-46
2023/04/02 00:29:24;;;;;;;0.43;0.30;;;16.10;99.90;;;15.92;55.70;100314.44;4891155;28;99944;-49
2023/04/02 00:31:52;;;;;;;0.27;0.27;;;16.10;99.90;;;15.97;55.49;100323.84;4900773;28;97149;-47
2023/04/02 00:34:22;;;;;;;0.30;0.20;;;16.20;99.90;;;16.01;55.07;100325.34;4899055;28;98154;-48
2023/04/02 00:36:49;;;;;;;0.50;0.50;;;16.20;99.90;;;15.96;55.14;100339.91;4920967;28;98494;-47
2023/04/02 00:39:23;;;;;;;0.43;0.30;;;16.20;99.90;;;15.98;55.25;100332.66;4891845;28;99058;-48
2023/04/02 00:42:03;;;;;;;0.20;0.20;;;16.20;99.90;;;16.02;55.51;100337.69;4898434;28;96860;-48
2023/04/02 00:44:42;;;;;;;0.83;0.30;;;16.20;99.90;;;16.08;55.24;100340.94;4895480;28;97244;-48
2023/04/02 00:47:19;;;;;;;0.57;0.27;;;16.30;99.90;;;16.07;52.67;100342.75;4900484;28;98777;-49
2023/04/02 00:49:45;;;;;;;0.30;0.20;;;16.30;99.90;;;16.01;55.45;100354.59;4901938;28;98293;-45
2023/04/02 00:52:16;;;;;;;0.80;0.40;;;16.30;99.90;;;16.10;53.20;100360.31;4897206;28;97778;-45
2023/04/02 00:54:48;;;;;;;0.20;0.20;;;16.30;99.90;;;16.09;55.21;100364.78;4901126;28;97255;-49
2023/04/02 00:57:22;;;;;;;0.23;0.20;;;16.30;99.90;;;16.18;54.97;100361.53;4910236;28;97292;-52
2023/04/02 01:00:02;;;;;;;0.50;0.30;;;16.40;99.90;;;16.19;54.42;100381.00;4902837;28;97632;-48
2023/04/02 01:02:32;;;;;;;0.20;0.20;;;16.30;99.90;;;16.23;54.72;100372.75;4903572;28;98128;-50
2023/04/02 01:05:14;;;;;;;0.13;0.10;;;16.40;99.90;;;16.14;54.25;100383.97;4907794;28;97273;-47
2023/04/02 01:07:58;;;;;;;0.20;0.20;;;16.30;99.90;;;16.11;54.66;100389.47;4899203;28;96982;-48
2023/04/02 01:10:48;;;;;;;0.37;0.30;;;16.30;99.90;;;16.00;55.01;100391.94;4900166;28;97765;-56
2023/04/02 01:13:22;;;;;;;0.30;0.20;;;16.20;99.90;;;16.12;52.71;100396.50;4902385;28;97313;-46
2023/04/02 01:16:26;;;;;;;0.20;0.20;;;16.30;99.90;;;16.15;54.62;100401.63;4907724;28;96930;-47
2023/04/02 01:19:06;;;;;;;0.40;0.30;;;16.30;99.90;;;16.18;52.06;100405.91;4903000;28;97198;-48
2023/04/02 01:22:10;;;;;;;0.27;0.20;;;16.40;99.90;;;16.18;54.00;100417.41;4902343;28;101324;-49
2023/04/02 01:24:37;;;;;;;0.37;0.30;;;16.30;99.90;;;16.12;52.95;100417.78;4873235;28;101362;-50
2023/04/02 01:27:25;;;;;;;0.20;0.10;;;16.30;99.90;;;16.10;54.53;100419.69;4897835;28;97269;-51
2023/04/02 01:29:56;;;;;;;0.20;0.20;;;16.30;99.90;;;16.14;53.48;100421.22;4907442;28;98116;-48
2023/04/02 01:32:26;;;;;;;0.10;0.07;;;16.30;99.90;;;16.09;54.31;100433.97;4914771;28;97479;-51
2023/04/02 01:34:52;;;;;;;0.40;0.23;;;16.30;99.90;;;16.08;54.45;100432.25;4906049;28;98954;-47
2023/04/02 01:38:06;;;;;;;0.20;0.20;;;16.30;99.90;;;16.09;54.40;100439.28;4898569;28;97421;-49
2023/04/02 01:40:38;;;;;;;0.10;0.10;;;16.30;99.90;;;15.99;54.94;100443.44;4898338;28;97618;-47
2023/04/02 01:43:33;;;;;;;0.10;0.10;;;16.20;99.90;;;16.08;53.38;100442.88;4908750;28;98013;-48
2023/04/02 01:46:23;;;;;;;0.30;0.30;;;16.30;99.90;;;16.06;50.65;100450.97;4884527;28;103249;-53
2023/04/02 01:48:49;;;;;;;0.00;0.00;;;16.30;99.90;;;16.09;54.35;100455.25;4890731;28;97514;-47
2023/04/02 01:51:34;;;;;;;0.47;0.37;;;16.30;99.90;;;16.20;53.79;100460.75;4898315;28;97377;-49
2023/04/02 01:54:03;;;;;;;0.10;0.03;;;16.40;99.90;;;16.15;54.39;100465.50;4903880;28;98384;-50
2023/04/02 01:56:29;;;;;;;0.20;0.20;;;16.40;99.90;;;16.18;54.24;100475.09;4910017;22;98243;-45
2023/04/02 01:58:57;;;;;;;0.37;0.20;;;16.40;99.90;;;16.16;54.00;100472.53;4888609;28;97477;-44
2023/04/02 02:01:29;;;;;;;0.10;0.10;;;16.40;99.90;;;16.21;53.83;100475.78;4901045;28;104236;-43
2023/04/02 02:03:55;;;;;;;0.57;0.30;;;16.40;99.90;;;16.24;52.89;100486.22;4901019;28;98465;-41
2023/04/02 02:06:22;;;;;;;0.20;0.20;;;16.40;99.90;;;16.15;51.70;100489.44;4899998;28;97114;-45
2023/04/02 02:09:02;;;;;;;0.20;0.13;;;16.40;99.90;;;16.11;53.92;100501.22;4900693;28;97556;-44
2023/04/02 02:11:31;;;;;;;0.80;0.43;;;16.30;99.90;;;16.14;53.94;100506.34;4900078;28;97067;-43
2023/04/02 02:14:00;;;;;;;0.10;0.10;;;16.40;99.90;;;16.08;53.79;100501.44;4903668;28;97338;-47
2023/04/02 02:16:28;;;;;;;0.10;0.10;;;16.40;99.90;;;16.12;53.93;100508.25;4903209;28;97685;-43
2023/04/02 02:18:59;;;;;;;0.40;0.13;;;16.30;99.90;;;16.13;53.91;100515.28;4905723;28;97356;-43
2023/04/02 02:21:38;;;;;;;0.30;0.20;;;16.40;99.90;;;16.20;53.05;100524.63;4903020;28;97268;-43
2023/04/02 02:24:24;;;;;;;0.03;0.00;;;16.40;99.90;;;16.21;53.91;100523.69;4899207;28;97928;-43
2023/04/02 02:27:25;;;;;;;0.10;0.00;;;16.30;99.90;;;16.08;53.86;100532.50;4890100;28;99912;-42
2023/04/02 02:30:15;;;;;;;0.20;0.17;;;16.30;99.90;;;16.09;53.56;100540.38;4899308;28;97253;-44
2023/04/02 02:32:54;;;;;;;0.20;0.20;;;16.30;99.90;;;16.12;53.94;100556.16;4902626;28;98262;-42
2023/04/02 02:35:29;;;;;;;0.10;0.10;;;16.30;99.90;;;16.14;53.52;100559.56;4914623;28;97714;-46
2023/04/02 02:38:33;;;;;;;0.10;0.10;;;16.30;99.90;;;16.15;53.72;100555.09;4907581;28;98513;-46
2023/04/02 02:41:34;;;;;;;0.30;0.23;;;16.30;99.90;;;16.16;53.75;100563.00;4896111;28;97603;-44
2023/04/02 02:44:09;;;;;;;0.33;0.13;;;16.40;99.90;;;16.12;53.32;100577.44;4886000;28;97743;-47
2023/04/02 02:46:49;;;;;;;0.87;0.10;;;16.40;99.90;;;16.20;53.28;100577.84;4901681;28;102135;-42
2023/04/02 02:49:21;;;;;;;0.20;0.20;;;16.30;99.90;;;16.21;53.50;100581.38;4917089;28;97661;-40
2023/04/02 02:52:16;;;;;;;0.40;0.23;;;16.30;99.90;;;16.13;53.58;100584.47;4890182;28;99292;-43
2023/04/02 02:54:51;;;;;;;0.67;0.10;;;16.30;99.90;;;16.14;53.43;100590.66;4885616;28;97286;-41
2023/04/02 02:57:25;;;;;;;0.30;0.13;;;16.20;99.90;;;16.13;53.08;100592.47;4898070;28;99414;-44
2023/04/02 02:59:52;;;;;;;0.20;0.20;;;16.20;99.90;;;16.14;53.49;100602.16;4906292;28;97431;-42
2023/04/02 03:02:18;;;;;;;0.20;0.20;;;16.30;99.90;;;16.11;53.25;100612.97;4899580;28;97953;-44
2023/04/02 03:04:51;;;;;;;0.30;0.20;;;16.20;99.90;;;16.04;49.42;100606.28;4898508;28;97695;-45
2023/04/02 03:07:18;;;;;;;0.30;0.20;;;16.20;99.90;;;16.01;53.78;100614.47;4902830;28;99347;-44
2023/04/02 03:10:21;;;;;;;0.00;0.00;;;16.20;99.90;;;16.06;53.94;100615.06;4903615;28;97433;-43
2023/04/02 03:13:20;;;;;;;0.20;0.20;;;16.30;99.90;;;16.09;51.96;100620.19;4904485;28;97305;-44
2023/04/02 03:16:08;;;;;;;0.20;0.10;;;16.30;99.90;;;16.06;51.12;100625.72;4879394;28;102922;-46
2023/04/02 03:18:43;;;;;;;0.30;0.30;;;16.10;99.90;;;15.95;53.29;100633.47;4898364;28;100994;-45
2023/04/02 03:21:36;;;;;;;0.10;0.10;;;16.10;99.90;;;15.90;53.82;100635.50;4905013;28;98659;-45
2023/04/02 03:24:16;;;;;;;0.10;0.10;;;16.00;99.90;;;15.82;54.31;100643.94;4901736;28;97579;-44
2023/04/02 03:26:52;;;;;;;0.10;0.10;;;15.90;99.90;;;15.93;53.85;100656.63;4897378;28;98033;-44
2023/04/02 03:29:28;;;;;;;0.00;0.00;;;16.10;99.90;;;15.99;53.62;100656.25;4898422;28;98604;-42
2023/04/02 03:32:08;;;;;;;0.17;0.17;;;16.20;99.90;;;15.94;53.64;100658.34;4884083;28;98033;-44
2023/04/02 03:34:45;;;;;;;0.10;0.10;;;16.10;99.90;;;15.89;53.91;100665.72;4900990;28;98025;-45
2023/04/02 03:37:29;;;;;;;0.13;0.10;;;16.00;99.90;;;15.74;54.37;100678.94;4917336;28;97494;-44
2023/04/02 03:40:14;;;;;;;0.60;0.30;;;16.00;99.90;;;15.88;53.88;100685.28;4892457;28;98680;-46
2023/04/02 03:42:59;;;;;;;0.20;0.10;;;16.10;99.90;;;15.95;53.67;100691.97;4875804;28;102815;-46
2023/04/02 03:45:32;;;;;;;0.10;0.10;;;16.10;99.90;;;15.99;53.45;100693.50;4907907;28;97520;-43
2023/04/02 03:48:19;;;;;;;0.20;0.10;;;16.20;99.90;;;15.99;53.67;100698.84;4916466;28;97538;-42
2023/04/02 03:51:13;;;;;;;1.17;0.50;;;16.20;99.90;;;15.92;47.84;100703.66;4896703;28;101002;-43
2023/04/02 03:53:39;;;;;;;0.50;0.37;;;16.10;99.90;;;15.93;53.55;100709.84;4888923;28;101111;-47
2023/04/02 03:56:06;;;;;;;0.10;0.10;;;16.00;99.90;;;15.97;53.40;100722.00;4898741;28;98256;-44
2023/04/02 03:58:45;;;;;;;0.30;0.30;;;16.10;99.90;;;15.88;49.73;100719.84;4898520;28;97301;-45
2023/04/02 04:01:33;;;;;;;0.60;0.47;;;16.10;99.90;;;15.89;53.18;100730.41;4891215;28;99588;-44
2023/04/02 04:04:15;;;;;;;0.33;0.27;;;16.00;99.90;;;15.98;53.35;100729.03;4895201;28;97413;-43
2023/04/02 04:06:44;;;;;;;0.30;0.10;;;16.20;99.90;;;15.97;53.15;100744.16;4893205;28;98553;-46
2023/04/02 04:09:37;;;;;;;0.30;0.10;;;16.20;99.90;;;16.08;53.14;100746.22;4887510;28;97363;-47
2023/04/02 04:12:34;;;;;;;0.13;0.13;;;16.30;99.90;;;15.95;53.08;100754.03;4900931;28;97626;-45
2023/04/02 04:15:19;;;;;;;0.73;0.33;;;16.10;99.90;;;15.93;50.72;100768.34;4884424;28;101250;-38
2023/04/02 04:18:09;;;;;;;0.40;0.40;;;16.10;99.90;;;15.86;53.15;100777.59;4895942;28;97303;-39
2023/04/02 04:20:57;;;;;;;0.40;0.40;;;15.90;99.90;;;15.74;48.48;100760.53;4898719;28;98283;-38
2023/04/02 04:23:35;;;;;;;0.63;0.30;;;15.90;99.90;;;15.64;53.95;100768.16;4909287;28;97184;-38
2023/04/02 04:26:25;;;;;;;0.20;0.10;;;15.80;99.90;;;15.73;53.98;100788.06;4891552;28;97880;-38
2023/04/02 04:29:44;;;;;;;0.80;0.70;;;15.90;99.90;;;15.71;53.42;100785.50;4886021;28;97280;-41
2023/04/02 04:32:49;;;;;;;0.50;0.40;;;15.80;99.90;;;15.73;52.55;100794.22;4900594;28;97029;-39
2023/04/02 04:35:28;;;;;;;0.20;0.10;;;15.90;99.90;;;15.68;53.68;100801.63;4840223;28;97553;-38
2023/04/02 04:38:03;;;;;;;0.43;0.20;;;15.80;99.90;;;15.72;53.66;100808.47;4897085;28;96876;-39
2023/04/02 04:40:33;;;;;;;1.20;0.50;;;15.90;99.90;;;15.64;47.88;100818.69;4911951;28;97089;-38
2023/04/02 04:43:06;;;;;;;0.40;0.30;;;15.80;99.90;;;15.67;53.50;100821.19;4882190;28;97624;-39
2023/04/02 04:45:54;;;;;;;0.20;0.20;;;15.70;99.90;;;15.55;54.15;100827.13;4898892;28;101388;-38
2023/04/02 04:49:31;;;;;;;0.10;0.10;;;15.50;99.90;;;15.52;53.94;100837.91;4896451;28;97696;-39
2023/04/02 04:52:10;;;;;;;0.10;0.10;;;15.60;99.90;;;15.43;54.05;100849.03;4876052;28;100620;-40
2023/04/02 04:54:38;;;;;;;0.23;0.23;;;15.40;99.90;;;15.37;54.33;100850.22;4894636;28;100340;-40
2023/04/02 04:57:20;;;;;;;0.00;0.00;;;15.30;99.90;;;15.31;54.58;100855.84;4919547;28;100567;-40
2023/04/02 05:00:05;;;;;;;0.63;0.30;;;15.20;99.90;;;15.15;53.74;100858.44;4882885;28;100814;-39
2023/04/02 05:03:08;;;;;;;0.23;0.23;;;15.00;99.90;;;15.24;55.15;100874.84;4898415;28;97525;-39
2023/04/02 05:05:39;;;;;;;0.40;0.27;;;15.10;99.90;;;15.34;52.77;100870.78;4900792;28;96873;-41
2023/04/02 05:08:18;;;;;;;0.10;0.10;;;15.40;99.90;;;15.41;54.50;100882.81;4903463;28;97251;-38
2023/04/02 05:10:51;;;;;;;0.50;0.40;;;15.60;99.90;;;15.46;53.83;100891.38;4903184;28;102022;-38
2023/04/02 05:13:28;;;;;;;1.60;0.50;;;15.60;99.90;;;15.52;53.45;100893.75;4894199;28;97450;-39
2023/04/02 05:16:36;;;;;;;0.60;0.40;;;15.70;99.90;;;15.64;53.85;100901.13;4899366;28;97106;-39
2023/04/02 05:19:16;;;;;;;0.50;0.30;;;15.80;99.90;;;15.67;53.96;100911.59;4883261;28;104089;-41
2023/04/02 05:21:53;;;;;;;0.30;0.20;;;15.80;99.90;;;15.71;53.37;100907.81;4904171;28;101368;-38
2023/04/02 05:24:43;;;;;;;0.37;0.20;;;15.90;99.90;;;15.70;51.48;100922.06;4888405;28;97526;-39
2023/04/02 05:27:20;;;;;;;0.23;0.20;;;15.90;99.90;;;15.69;51.81;100924.81;4904795;28;97004;-39
2023/04/02 05:29:53;;;;;;;0.70;0.67;;;15.80;99.90;;;15.68;47.83;100921.28;4903608;28;97979;-38
2023/04/02 05:32:27;;;;;;;0.57;0.30;;;15.90;99.90;;;15.72;53.27;100932.59;4901000;28;96978;-38
2023/04/02 05:34:55;;;;;;;0.23;0.17;;;15.90;99.90;;;15.68;53.14;100937.25;4902259;28;97256;-39
2023/04/02 05:37:26;;;;;;;0.70;0.50;;;15.80;99.90;;;15.77;52.73;100936.75;4890389;28;104444;-38
2023/04/02 05:39:59;;;;;;;0.40;0.20;;;15.90;99.90;;;15.76;53.38;100943.00;4890080;28;97472;-38
2023/04/02 05:42:31;;;;;;;0.40;0.40;;;16.00;99.90;;;15.76;51.78;100953.63;4913924;28;97270;-39
2023/04/02 05:45:12;;;;;;;0.33;0.33;;;15.90;99.90;;;15.82;48.74;100954.28;4895423;28;97576;-40
2023/04/02 05:47:42;;;;;;;0.20;0.20;;;16.00;99.90;;;15.74;52.59;100965.31;4904586;28;97149;-39
2023/04/02 05:50:36;;;;;;;0.53;0.50;;;15.80;99.90;;;15.65;50.97;100971.97;4891199;28;97677;-40
2023/04/02 05:53:28;;;;;;;0.23;0.20;;;15.70;99.90;;;15.71;53.34;100982.28;4899664;28;97362;-39
2023/04/02 05:56:15;;;;;;;1.03;0.40;;;15.80;99.90;;;15.72;53.27;100986.66;4893963;28;98912;-38
2023/04/02 05:58:56;;;;;;;0.60;0.47;;;15.90;99.90;;;15.81;52.41;100997.78;4890334;28;98650;-38
2023/04/02 06:01:39;;;;;;;1.23;1.03;;;16.00;99.90;;;15.68;48.84;101009.03;4898439;28;97626;-39
2023/04/02 06:04:43;;;;;;;0.87;0.40;;;15.90;99.90;;;15.72;49.39;101015.91;4898233;28;96967;-38
2023/04/02 06:07:39;;;;;;;0.50;0.50;;;16.00;99.90;;;15.72;51.58;101023.88;4887949;28;96903;-39
2023/04/02 06:10:22;;;;;;;0.67;0.57;;;15.90;99.90;;;15.73;52.32;101032.72;4881513;28;96829;-38
2023/04/02 06:13:02;;;;;;;0.57;0.57;;;15.90;99.90;;;15.81;52.60;101037.66;4904214;28;101653;-40
2023/04/02 06:15:30;;;;;;;2.90;0.63;;;15.90;99.90;;;15.68;52.22;101040.09;4906239;28;97766;-38
2023/04/02 06:18:06;;;;;;;0.43;0.30;;;15.80;99.90;;;15.60;53.07;101056.41;4921325;28;97338;-40
2023/04/02 06:20:32;;;;;;;0.80;0.40;;;15.60;99.90;;;15.65;53.15;101061.53;4912519;28;97451;-39
2023/04/02 06:23:31;;;;;;;0.93;0.53;;;15.80;99.90;;;15.57;51.12;101075.16;4905903;28;98342;-39
2023/04/02 06:26:25;;;;;;;1.03;0.60;;;15.80;99.90;;;15.58;53.18;101076.03;4899808;28;101824;-39
2023/04/02 06:29:20;;;;;;;0.90;0.63;;;15.70;99.90;;;15.57;53.15;101087.59;4916318;28;97210;-39
2023/04/02 06:32:03;;;;;;;1.60;1.13;;;15.70;99.90;;;15.64;52.13;101079.28;4898422;28;97316;-39
2023/04/02 06:34:30;;;;;;;1.47;0.93;;;15.80;99.90;;;15.66;49.98;101079.19;4919278;28;99150;-38
2023/04/02 06:37:04;;;;;;;0.20;0.20;;;15.80;99.90;;;15.70;52.64;101088.75;4891825;28;97403;-38
2023/04/02 06:39:30;;;;;;;0.93;0.57;;;15.80;99.90;;;15.74;51.63;101099.13;4894224;28;96986;-40
2023/04/02 06:42:17;;;;;;;0.40;0.40;;;16.00;99.90;;;15.69;52.58;101103.84;4901213;28;97418;-39
2023/04/02 06:44:43;;;;;;;3.50;1.70;;;15.90;99.90;;;15.68;45.34;101109.22;4903987;28;101623;-38
2023/04/02 06:47:33;;;;;;;0.70;0.43;;;15.90;99.90;;;15.66;52.48;101117.28;4900359;28;116217;-39
2023/04/02 06:50:18;;;;;;;0.40;0.40;;;15.90;99.90;;;15.68;52.69;101126.06;4912276;28;97150;-39
2023/04/02 06:52:54;;;;;;;0.70;0.50;;;16.00;99.90;;;15.70;52.19;101123.31;4899739;28;97148;-39
2023/04/02 06:55:28;;;;;;;0.40;0.40;;;16.00;99.90;;;15.74;52.00;101131.06;4906295;28;98415;-38
2023/04/02 06:57:53;;;;;;;0.50;0.50;;;16.00;99.90;;;15.82;51.91;101137.81;4911572;28;97614;-38
2023/04/02 07:00:45;;;;;;;2.10;0.70;;;16.10;99.90;;;15.92;51.45;101149.72;4900195;28;100450;-38
2023/04/02 07:03:31;;;;;;;2.47;1.00;;;16.20;99.90;;;15.98;51.35;101160.03;4872655;28;99510;-39
2023/04/02 07:05:59;;;;;;;1.27;0.73;;;16.20;99.90;;;15.89;50.48;101161.34;4881192;28;97620;-39
2023/04/02 07:08:25;;;;;;;1.83;0.70;;;16.10;99.90;;;15.80;47.33;101158.31;4878211;28;97330;-39
2023/04/02 07:10:51;;;;;;;0.50;0.50;;;15.90;99.90;;;15.67;51.67;101169.53;4884513;28;97543;-39
2023/04/02 07:13:20;;;;;;;1.27;0.77;;;15.60;99.90;;;15.62;52.21;101174.22;4877797;28;97838;-40
2023/04/02 07:15:51;;;;;;;1.57;1.13;;;15.70;99.90;;;15.62;51.22;101173.34;4883601;28;100918;-39
2023/04/02 07:18:32;;;;;;;2.40;0.57;;;15.70;99.90;;;15.61;51.92;101190.22;4859550;28;97891;-40
2023/04/02 07:20:58;;;;;;;0.53;0.53;;;15.80;99.90;;;15.66;51.69;101190.91;4880941;28;97160;-39
2023/04/02 07:23:25;;;;;;;1.10;0.80;;;15.80;99.90;;;15.69;51.54;101202.25;4874362;28;98490;-39
2023/04/02 07:25:53;;;;;;;0.80;0.80;;;16.00;99.90;;;15.69;51.82;101199.56;4881879;28;97659;-39
2023/04/02 07:28:20;;;;;;;4.43;1.10;;;16.00;99.90;;;15.84;50.12;101205.09;4876345;28;97905;-39
2023/04/02 07:30:46;;;;;;;1.43;1.07;;;16.10;99.90;;;15.82;47.60;101212.28;4882197;28;98454;-39
2023/04/02 07:33:17;;;;;;;0.80;0.60;;;16.10;99.90;;;15.91;50.85;101219.81;4877857;28;101680;-39
2023/04/02 07:35:45;;;;;;;1.87;0.90;;;16.10;99.90;;;15.89;47.01;101227.84;4882123;28;97699;-38
2023/04/02 07:38:10;;;;;;;1.47;0.50;;;16.20;99.90;;;15.90;50.98;101236.69;4879609;28;97347;-39
2023/04/02 07:40:37;;;;;;;1.93;0.60;;;16.10;99.90;;;15.96;50.48;101237.28;4881862;28;99872;-39
2023/04/02 07:43:04;;;;;;;2.70;1.17;;;16.10;99.90;;;15.75;44.31;101244.47;4880310;28;98819;-40
2023/04/02 07:45:30;;;;;;;0.63;0.50;;;15.90;99.90;;;15.68;51.78;101243.06;4877148;28;97639;-39
2023/04/02 07:47:57;;;;;;;0.60;0.40;;;15.80;99.90;;;15.67;51.67;101246.66;4878741;28;97581;-41
2023/04/02 07:50:23;;;;;;;0.87;0.50;;;16.00;99.90;;;15.89;51.03;101256.25;4880591;28;99724;-39
2023/04/02 07:52:49;;;;;;;0.70;0.50;;;16.10;99.90;;;15.89;50.47;101261.59;4885834;28;97552;-39
2023/04/02 07:55:15;;;;;;;1.10;0.53;;;16.00;99.90;;;15.86;51.11;101273.25;4877941;28;97500;-40
2023/04/02 07:57:56;;;;;;;1.10;0.60;;;16.10;99.90;;;15.88;50.71;101267.84;4882812;28;97414;-39
2023/04/02 08:00:23;;;;;;;0.77;0.50;;;16.00;99.90;;;15.72;50.54;101276.56;4884235;28;98382;-39
2023/04/02 08:02:50;;;;;;;0.73;0.60;;;15.80;99.90;;;15.72;51.50;101281.00;4885046;28;97384;-39
2023/04/02 08:05:16;;;;;;;1.90;0.80;;;15.90;99.90;;;15.81;51.41;101285.03;4875397;28;98398;-39
2023/04/02 08:07:43;;;;;;;1.97;1.00;;;16.00;99.90;;;15.77;50.07;101287.00;4881892;28;100622;-39
2023/04/02 08:10:11;;;;;;;1.23;0.90;;;15.90;99.90;;;15.75;51.40;101291.50;4877783;28;100509;-39
2023/04/02 08:12:37;;;;;;;1.00;0.53;;;16.00;99.90;;;15.89;51.02;101298.81;4871458;28;97884;-39
2023/04/02 08:15:05;;;;;;;2.63;1.50;;;16.10;99.90;;;15.80;48.37;101307.25;4879477;28;109521;-39
2023/04/02 08:17:32;;;;;;;0.47;0.40;;;16.10;99.90;;;15.83;51.09;101313.28;4876545;28;97615;-39
2023/04/02 08:20:00;;;;;;;1.47;0.90;;;16.10;99.90;;;15.84;51.16;101308.84;4881730;28;97480;-40
2023/04/02 08:22:28;;;;;;;3.63;1.73;;;16.20;99.90;;;15.85;47.12;101321.19;4876235;28;98059;-40
2023/04/02 08:24:55;;;;;;;3.60;0.80;;;16.10;99.90;;;15.84;50.84;101324.78;4885903;28;97159;-41
2023/04/02 08:27:25;;;;;;;1.07;0.60;;;16.00;99.90;;;15.89;50.84;101330.75;4896532;28;99681;-39
2023/04/02 08:29:51;;;;;;;1.03;0.63;;;16.10;99.90;;;15.97;50.45;101339.25;4895137;28;99994;-52
2023/04/02 08:32:17;;;;;;;1.37;0.80;;;16.20;99.90;;;16.02;50.35;101342.53;4896962;28;97456;-39
2023/04/02 08:34:44;;;;;;;1.77;0.67;;;16.30;99.90;;;16.06;50.42;101354.78;4907656;28;98277;-41
2023/04/02 08:37:13;;;;;;;1.37;0.80;;;16.30;99.90;;;15.96;50.80;101369.47;4902621;28;97418;-39
2023/04/02 08:39:40;;;;;;;1.87;1.23;;;16.30;99.90;;;16.06;48.02;101368.09;4890056;28;97442;-39
2023/04/02 08:42:49;;;;;;;0.93;0.63;;;16.30;99.90;;;15.91;49.58;101371.44;4904459;28;97354;-40
2023/04/02 08:45:17;;;;;;;2.20;1.37;;;16.00;99.90;;;15.56;44.90;101384.53;4823737;28;103194;-39
2023/04/02 08:47:46;;;;;;;2.00;1.00;;;15.40;99.90;;;15.26;48.45;101385.91;4891855;28;97475;-40
2023/04/02 08:50:33;;;;;;;0.87;0.63;;;15.00;99.90;;;15.37;52.19;101395.13;4900647;28;97316;-39
2023/04/02 08:53:04;;;;;;;1.43;0.97;;;15.20;99.90;;;15.37;51.47;101396.94;4895021;28;97442;-39
2023/04/02 08:56:18;;;;;;;1.03;0.83;;;15.30;99.90;;;15.43;51.54;101404.63;4884155;28;98909;-40
2023/04/02 08:58:47;;;;;;;1.87;1.27;;;15.50;99.90;;;15.49;52.28;101412.34;4882215;28;102568;-40
2023/04/02 09:01:41;;;;;;;0.70;0.70;;;15.70;99.90;;;15.62;51.82;101416.22;4899484;28;97237;-39
2023/04/02 09:04:15;;;;;;;0.90;0.77;;;15.90;99.90;;;15.72;50.93;101414.84;4883498;28;97431;-44
2023/04/02 09:06:43;;;;;;;0.90;0.57;;;16.00;99.90;;;15.74;51.11;101418.31;4904433;28;100426;-39
2023/04/02 09:09:11;;;;;;;1.23;0.70;;;16.10;99.90;;;15.84;50.65;101420.56;4900663;28;96994;-39
2023/04/02 09:12:00;;;;;;;5.83;1.10;;;16.20;99.90;;;16.03;49.98;101429.41;4906125;28;97491;-39
2023/04/02 09:15:37;;;;;;;1.73;0.93;;;16.30;99.90;;;16.02;50.15;101427.69;4899455;28;97361;-39
2023/04/02 09:18:14;;;;;;;0.60;0.50;;;16.30;99.90;;;16.07;49.63;101441.69;4891753;28;102752;-40
2023/04/02 09:20:40;;;;;;;1.90;1.27;;;16.30;99.90;;;15.97;45.22;101437.69;4904345;28;99955;-39
2023/04/02 09:23:22;;;;;;;1.20;0.77;;;16.30;99.90;;;16.04;49.96;101441.78;4905398;28;97502;-39
2023/04/02 09:25:52;;;;;;;1.30;0.90;;;16.30;99.90;;;15.98;49.96;101452.72;4889279;28;97635;-40
2023/04/02 09:28:25;;;;;;;2.20;0.70;;;16.30;99.90;;;16.01;49.91;101452.59;4902105;28;97079;-40
2023/04/02 09:31:21;;;;;;;1.20;0.77;;;16.30;99.90;;;15.92;50.23;101463.66;4906028;28;99270;-40
2023/04/02 09:33:49;;;;;;;0.80;0.70;;;16.30;99.90;;;15.96;49.87;101459.91;4905660;28;97419;-40
2023/04/02 09:36:37;;;;;;;1.00;0.80;;;16.30;99.90;;;16.00;49.58;101480.13;4891017;28;97329;-39
2023/04/02 09:39:16;;;;;;;1.53;0.83;;;16.30;99.90;;;16.10;49.43;101478.78;4904152;28;97075;-40
2023/04/02 09:41:44;;;;;;;1.33;1.00;;;16.40;99.90;;;16.12;49.07;101487.56;4898124;28;101991;-39
2023/04/02 09:44:21;;;;;;;2.43;1.03;;;16.40;99.90;;;16.16;49.16;101494.47;4903481;28;97348;-39
2023/04/02 09:46:54;;;;;;;1.07;0.93;;;16.40;99.90;;;16.11;49.07;101501.81;4896165;28;98418;-40
2023/04/02 09:49:35;;;;;;;1.17;0.93;;;16.40;99.90;;;16.15;48.72;101503.38;4900011;28;97550;-45
2023/04/02 09:52:10;;;;;;;2.20;0.80;;;16.40;99.90;;;16.06;49.15;101515.31;4900875;28;97763;-39
2023/04/02 09:54:40;;;;;;;0.67;0.67;;;16.40;99.90;;;16.03;49.33;101514.56;4899483;28;97404;-40
2023/04/02 09:57:23;;;;;;;1.50;0.90;;;16.40;99.90;;;16.07;49.14;101526.84;4905928;28;97116;-39
2023/04/02 10:00:17;;;;;;;1.20;0.90;;;16.40;99.90;;;16.10;49.06;101532.00;4907023;28;100628;-39
2023/04/02 10:02:45;;;;;;;2.73;1.00;;;16.40;99.90;;;16.16;48.76;101542.38;4899667;28;99863;-39
2023/04/02 10:05:20;;;;;;;1.40;0.87;;;16.40;99.90;;;16.12;48.47;101546.13;4907332;28;97026;-40
2023/04/02 10:07:52;;;;;;;1.83;1.10;;;16.40;99.90;;;16.10;48.43;101555.97;4902513;28;97490;-39
2023/04/02 10:10:38;;;;;;;2.20;0.83;;;16.30;99.90;;;16.09;48.85;101545.41;4903409;28;97417;-39
2023/04/02 10:13:10;;;;;;;1.43;1.20;;;16.30;99.90;;;16.05;48.93;101555.28;4892439;28;97389;-39
2023/04/02 10:16:25;;;;;;;1.20;0.80;;;16.30;99.90;;;16.05;48.93;101560.59;4897341;28;97238;-40
2023/04/02 10:19:30;;;;;;;1.00;0.77;;;16.30;99.90;;;16.02;49.42;101560.75;4900816;28;97600;-39
2023/04/02 10:22:02;;;;;;;1.10;0.90;;;16.30;99.90;;;16.09;49.13;101567.53;4872839;28;102967;-40
2023/04/02 10:24:28;;;;;;;1.67;0.90;;;16.40;99.90;;;16.06;49.38;101578.34;4900286;28;97240;-41
2023/04/02 10:27:16;;;;;;;1.07;0.90;;;16.40;99.90;;;16.19;48.80;101578.63;4905075;28;97082;-39
2023/04/02 10:30:20;;;;;;;1.40;1.10;;;16.50;99.90;;;16.02;49.63;101582.03;4902958;28;97848;-41
2023/04/02 10:33:18;;;;;;;1.13;1.00;;;16.40;99.90;;;16.01;49.59;101585.63;4904190;28;103822;-39
2023/04/02 10:36:09;;;;;;;0.93;0.80;;;16.40;99.90;;;16.03;48.97;101600.59;4896723;28;102964;-39
2023/04/02 10:38:58;;;;;;;1.67;1.30;;;16.40;99.90;;;16.10;48.83;101601.22;4903264;28;97286;-39
2023/04/02 10:41:51;;;;;;;0.93;0.70;;;16.40;99.90;;;16.14;48.60;101605.47;4896740;28;97794;-39
2023/04/02 10:45:14;;;;;;;1.33;0.97;;;16.40;99.90;;;16.18;48.42;101615.03;4895983;28;97525;-40
2023/04/02 10:48:19;;;;;;;1.53;1.00;;;16.40;99.90;;;16.02;49.43;101612.19;4888424;28;100544;-40
2023/04/02 10:51:17;;;;;;;1.10;0.97;;;16.40;99.90;;;16.05;48.90;101619.16;4895516;28;97910;-39
2023/04/02 10:54:26;;;;;;;1.70;1.27;;;16.40;99.90;;;16.09;48.25;101615.47;4893961;28;97377;-40
2023/04/02 10:56:55;;;;;;;1.13;0.77;;;16.30;99.90;;;16.10;48.76;101622.50;4882926;28;103509;-39
2023/04/02 10:59:31;;;;;;;1.20;0.87;;;16.40;99.90;;;16.04;49.37;101628.06;4886054;28;97072;-39